Time;durP1;ratioP1;P1;durP2;ratioP2;P2;SDS_P1;SDS_P2;PMS_P1;PMS_P2;Temp;Humidity;BMP_temperature;BMP_pressure;BME280_temperature;BME280_humidity;BME280_pressure;Samples;Min_cycle;Max_cycle;Signal;HPM_P1;HPM_P2
2022/07/17 00:00:50;;;;;;;4.13;2.10;;;;;;;;;;5055463;28;20488;-76
2022/07/17 00:03:18;;;;;;;4.07;2.40;;;;;;;;;;5073570;28;20929;-76
2022/07/17 00:05:45;;;;;;;6.43;2.40;;;;;;;;;;5090764;28;20857;-77
2022/07/17 00:08:13;;;;;;;3.70;1.90;;;;;;;;;;5097559;28;20420;-76
2022/07/17 00:10:44;;;;;;;3.53;2.63;;;;;;;;;;5108591;28;20438;-76
2022/07/17 00:13:11;;;;;;;3.73;2.33;;;;;;;;;;5110924;28;20817;-76
2022/07/17 00:15:39;;;;;;;2.80;2.37;;;;;;;;;;5111216;28;20485;-77
2022/07/17 00:18:07;;;;;;;6.20;2.50;;;;;;;;;;5112164;28;20434;-77
2022/07/17 00:20:35;;;;;;;3.77;2.00;;;;;;;;;;5091841;28;20497;-76
2022/07/17 00:23:02;;;;;;;3.50;2.27;;;;;;;;;;5096233;28;20441;-77
2022/07/17 00:25:32;;;;;;;2.60;2.27;;;;;;;;;;5096973;28;20537;-77
2022/07/17 00:28:00;;;;;;;4.20;2.33;;;;;;;;;;5108978;28;20430;-77
2022/07/17 00:30:27;;;;;;;4.80;2.40;;;;;;;;;;5110766;28;20434;-77
2022/07/17 00:32:55;;;;;;;4.30;2.30;;;;;;;;;;5111711;28;20452;-78
2022/07/17 00:35:22;;;;;;;3.23;2.20;;;;;;;;;;5112366;28;20468;-77
2022/07/17 00:37:51;;;;;;;3.20;2.07;;;;;;;;;;5108756;28;20446;-77
2022/07/17 00:40:20;;;;;;;4.73;2.20;;;;;;;;;;5075747;28;20516;-76
2022/07/17 00:42:49;;;;;;;8.93;2.43;;;;;;;;;;5093472;28;20454;-76
2022/07/17 00:45:18;;;;;;;3.13;2.00;;;;;;;;;;5096432;28;20458;-76
2022/07/17 00:47:51;;;;;;;5.00;2.03;;;;;;;;;;5096805;28;20449;-76
2022/07/17 00:50:18;;;;;;;4.30;2.50;;;;;;;;;;5110808;28;20449;-77
2022/07/17 00:52:45;;;;;;;5.43;2.50;;;;;;;;;;5110535;28;20452;-76
2022/07/17 00:55:13;;;;;;;7.60;2.20;;;;;;;;;;5111501;28;20811;-76
2022/07/17 00:57:42;;;;;;;3.50;2.43;;;;;;;;;;5111897;28;20441;-77
2022/07/17 01:00:10;;;;;;;4.93;2.50;;;;;;;;;;5106618;28;21019;-76
2022/07/17 01:02:39;;;;;;;2.43;2.10;;;;;;;;;;5093414;28;20924;-76
2022/07/17 01:05:07;;;;;;;5.90;2.30;;;;;;;;;;5092956;28;20466;-75
2022/07/17 01:07:35;;;;;;;4.73;2.43;;;;;;;;;;5096287;28;20446;-76
2022/07/17 01:10:02;;;;;;;4.97;2.60;;;;;;;;;;5079139;28;20434;-75
2022/07/17 01:12:29;;;;;;;4.13;2.40;;;;;;;;;;5110482;28;20456;-74
2022/07/17 01:14:58;;;;;;;3.17;2.30;;;;;;;;;;5110160;28;20472;-75
2022/07/17 01:17:25;;;;;;;3.20;2.23;;;;;;;;;;5111186;28;20451;-75
2022/07/17 01:19:54;;;;;;;3.43;2.50;;;;;;;;;;5111497;28;20479;-74
2022/07/17 01:22:22;;;;;;;4.37;2.43;;;;;;;;;;5105367;28;20451;-75
2022/07/17 01:24:49;;;;;;;3.33;2.30;;;;;;;;;;5096161;28;20445;-75
2022/07/17 01:27:17;;;;;;;5.73;2.67;;;;;;;;;;5096600;28;20533;-74
2022/07/17 01:29:44;;;;;;;3.40;2.00;;;;;;;;;;5099979;28;20444;-76
2022/07/17 01:32:11;;;;;;;4.00;2.07;;;;;;;;;;5100395;28;20436;-73
2022/07/17 01:34:39;;;;;;;4.33;2.70;;;;;;;;;;5093281;28;20446;-74
2022/07/17 01:37:06;;;;;;;3.37;2.50;;;;;;;;;;5093561;28;20449;-75
2022/07/17 01:42:16;;;;;;;4.10;2.20;;;;;;;;;;5093363;28;20431;-75
2022/07/17 01:44:43;;;;;;;4.10;2.90;;;;;;;;;;5094464;28;20467;-74
2022/07/17 01:47:10;;;;;;;3.20;2.20;;;;;;;;;;5095952;28;20905;-75
2022/07/17 01:49:37;;;;;;;6.57;2.60;;;;;;;;;;5096921;28;20441;-75
2022/07/17 01:52:05;;;;;;;3.53;2.37;;;;;;;;;;5099656;28;20554;-74
2022/07/17 01:54:32;;;;;;;4.93;2.40;;;;;;;;;;5098840;28;20642;-75
2022/07/17 01:57:00;;;;;;;4.63;2.50;;;;;;;;;;5093007;28;20452;-75
2022/07/17 01:59:28;;;;;;;6.87;2.97;;;;;;;;;;5092898;28;20443;-76
2022/07/17 02:01:55;;;;;;;3.20;2.10;;;;;;;;;;5093944;28;20450;-76
2022/07/17 02:04:22;;;;;;;2.47;2.10;;;;;;;;;;5094144;28;20440;-75
2022/07/17 02:06:49;;;;;;;3.17;2.33;;;;;;;;;;5094195;28;20471;-75
2022/07/17 02:09:16;;;;;;;3.17;2.13;;;;;;;;;;5095571;28;20438;-75
2022/07/17 02:11:43;;;;;;;5.50;2.57;;;;;;;;;;5095260;28;20921;-76
2022/07/17 02:14:12;;;;;;;3.93;2.60;;;;;;;;;;5090622;28;20476;-75
2022/07/17 02:16:39;;;;;;;4.47;2.63;;;;;;;;;;5102019;28;20467;-75
2022/07/17 02:19:07;;;;;;;4.20;2.77;;;;;;;;;;5113326;28;20749;-75
2022/07/17 02:21:34;;;;;;;5.03;2.43;;;;;;;;;;5112954;28;20505;-75
2022/07/17 02:24:01;;;;;;;4.77;2.17;;;;;;;;;;5114047;28;20459;-75
2022/07/17 02:26:28;;;;;;;3.13;2.50;;;;;;;;;;5113988;28;20465;-75
2022/07/17 02:28:55;;;;;;;3.23;2.03;;;;;;;;;;5104687;28;20448;-74
2022/07/17 02:31:24;;;;;;;5.40;2.77;;;;;;;;;;5095456;28;20494;-75
2022/07/17 02:33:51;;;;;;;4.13;2.60;;;;;;;;;;5096291;28;20519;-75
2022/07/17 02:36:18;;;;;;;5.57;2.10;;;;;;;;;;5098766;28;20450;-74
2022/07/17 02:38:46;;;;;;;2.80;2.20;;;;;;;;;;5097534;28;20443;-76
2022/07/17 02:41:13;;;;;;;6.50;2.73;;;;;;;;;;5092400;28;20585;-75
2022/07/17 02:43:40;;;;;;;4.27;2.17;;;;;;;;;;5092306;28;20440;-75
2022/07/17 02:46:08;;;;;;;4.47;2.60;;;;;;;;;;5093067;28;20473;-75
2022/07/17 02:48:36;;;;;;;4.03;2.77;;;;;;;;;;5093254;28;20540;-76
2022/07/17 02:51:03;;;;;;;4.80;2.90;;;;;;;;;;5093663;28;20906;-74
2022/07/17 02:53:30;;;;;;;6.53;2.80;;;;;;;;;;5094941;28;20432;-74
2022/07/17 02:55:58;;;;;;;5.00;2.40;;;;;;;;;;5095112;28;20465;-75
2022/07/17 02:58:25;;;;;;;4.83;2.20;;;;;;;;;;5098663;28;20437;-74
2022/07/17 03:00:53;;;;;;;2.70;2.47;;;;;;;;;;5101795;28;20486;-75
2022/07/17 03:03:20;;;;;;;4.60;2.53;;;;;;;;;;5112875;28;20442;-76
2022/07/17 03:05:49;;;;;;;3.40;2.30;;;;;;;;;;5112088;28;20455;-76
2022/07/17 03:08:16;;;;;;;5.80;2.70;;;;;;;;;;5094849;28;20460;-74
2022/07/17 03:10:43;;;;;;;4.43;2.30;;;;;;;;;;5113558;28;20451;-75
2022/07/17 03:13:10;;;;;;;3.30;2.30;;;;;;;;;;5102821;28;20463;-75
2022/07/17 03:15:37;;;;;;;3.63;2.27;;;;;;;;;;5094252;28;20522;-74
2022/07/17 03:18:05;;;;;;;3.53;2.60;;;;;;;;;;5095080;28;20443;-75
2022/07/17 03:20:32;;;;;;;3.63;2.47;;;;;;;;;;5098251;28;20482;-74
2022/07/17 03:23:01;;;;;;;3.70;2.67;;;;;;;;;;5101445;28;20437;-74
2022/07/17 03:25:28;;;;;;;3.40;2.37;;;;;;;;;;5112399;28;20455;-75
2022/07/17 03:27:55;;;;;;;4.70;3.00;;;;;;;;;;5111864;28;20820;-75
2022/07/17 03:30:22;;;;;;;4.13;2.60;;;;;;;;;;5112465;28;20442;-75
2022/07/17 03:32:49;;;;;;;3.60;2.93;;;;;;;;;;5112893;28;20442;-74
2022/07/17 03:35:17;;;;;;;2.90;2.27;;;;;;;;;;5101864;28;21086;-75
2022/07/17 03:37:44;;;;;;;4.93;2.80;;;;;;;;;;5094300;28;20446;-75
2022/07/17 03:40:14;;;;;;;4.00;2.37;;;;;;;;;;5094611;28;20507;-75
2022/07/17 03:42:41;;;;;;;2.50;2.30;;;;;;;;;;5097535;28;20431;-76
2022/07/17 03:45:09;;;;;;;8.30;3.07;;;;;;;;;;5095198;28;20463;-76
2022/07/17 03:47:36;;;;;;;6.30;2.73;;;;;;;;;;5091255;28;20446;-75
2022/07/17 03:50:03;;;;;;;2.73;2.40;;;;;;;;;;5090954;28;20951;-75
2022/07/17 03:52:30;;;;;;;3.80;2.60;;;;;;;;;;5091892;28;20462;-75
2022/07/17 03:54:57;;;;;;;7.30;2.70;;;;;;;;;;5092310;28;20490;-76
2022/07/17 03:57:26;;;;;;;5.97;3.13;;;;;;;;;;5092393;28;20459;-76
2022/07/17 03:59:53;;;;;;;7.60;3.10;;;;;;;;;;5093597;28;20446;-76
2022/07/17 04:02:21;;;;;;;4.03;3.00;;;;;;;;;;5094531;28;20539;-75
2022/07/17 04:04:48;;;;;;;5.80;3.00;;;;;;;;;;5097263;28;20438;-75
2022/07/17 04:07:27;;;;;;;5.43;2.93;;;;;;;;;;5102014;28;20429;-76
2022/07/17 04:09:55;;;;;;;4.90;3.07;;;;;;;;;;5111681;28;20984;-76
2022/07/17 04:12:22;;;;;;;3.97;2.80;;;;;;;;;;5111194;28;20449;-75
2022/07/17 04:14:51;;;;;;;4.67;3.27;;;;;;;;;;5111689;28;20461;-75
2022/07/17 04:17:18;;;;;;;4.67;2.77;;;;;;;;;;5111874;28;20474;-76
2022/07/17 04:19:45;;;;;;;4.33;2.67;;;;;;;;;;5098586;28;20451;-75
2022/07/17 04:22:13;;;;;;;5.93;3.13;;;;;;;;;;5093573;28;20486;-75
2022/07/17 04:24:40;;;;;;;4.10;2.83;;;;;;;;;;5094620;28;20434;-75
2022/07/17 04:27:08;;;;;;;5.17;2.90;;;;;;;;;;5096662;28;20518;-75
2022/07/17 04:29:35;;;;;;;6.20;3.20;;;;;;;;;;5103118;28;20453;-75
2022/07/17 04:32:04;;;;;;;3.90;3.07;;;;;;;;;;5111662;28;20454;-75
2022/07/17 04:34:32;;;;;;;4.70;2.87;;;;;;;;;;5110848;28;20448;-75
2022/07/17 04:36:59;;;;;;;4.50;3.10;;;;;;;;;;5111561;28;20494;-75
2022/07/17 04:39:26;;;;;;;9.77;3.40;;;;;;;;;;5112044;28;20445;-76
2022/07/17 04:41:54;;;;;;;4.47;2.80;;;;;;;;;;5097698;28;20473;-75
2022/07/17 04:44:21;;;;;;;3.87;3.33;;;;;;;;;;5093168;28;21028;-75
2022/07/17 04:46:48;;;;;;;3.80;2.80;;;;;;;;;;5094740;28;20454;-75
2022/07/17 04:49:17;;;;;;;6.50;3.23;;;;;;;;;;5078435;28;20885;-76
2022/07/17 04:51:44;;;;;;;8.87;3.50;;;;;;;;;;5093454;28;20832;-75
2022/07/17 04:54:11;;;;;;;5.03;3.03;;;;;;;;;;5090961;28;20441;-75
2022/07/17 04:56:38;;;;;;;4.40;3.20;;;;;;;;;;5090156;28;20449;-79
2022/07/17 04:59:06;;;;;;;5.20;3.17;;;;;;;;;;5093429;28;20446;-77
2022/07/17 05:01:33;;;;;;;5.97;3.13;;;;;;;;;;5095498;28;20446;-78
2022/07/17 05:04:01;;;;;;;3.37;2.90;;;;;;;;;;5096040;28;20480;-77
2022/07/17 05:06:30;;;;;;;3.70;3.30;;;;;;;;;;5097126;28;20501;-76
2022/07/17 05:08:57;;;;;;;4.27;3.13;;;;;;;;;;5098282;28;20449;-76
2022/07/17 05:11:24;;;;;;;4.23;2.77;;;;;;;;;;5082306;28;20573;-78
2022/07/17 05:13:52;;;;;;;4.80;3.13;;;;;;;;;;5097438;28;20436;-77
2022/07/17 05:16:19;;;;;;;3.20;2.90;;;;;;;;;;5094268;28;20470;-77
2022/07/17 05:18:46;;;;;;;3.90;2.70;;;;;;;;;;5093974;28;20547;-80
2022/07/17 05:21:14;;;;;;;3.03;2.73;;;;;;;;;;5094544;28;20439;-78
2022/07/17 05:23:43;;;;;;;5.33;3.00;;;;;;;;;;5094926;28;20435;-77
2022/07/17 05:26:10;;;;;;;10.27;4.00;;;;;;;;;;5095704;28;20477;-78
2022/07/17 05:28:37;;;;;;;4.60;2.87;;;;;;;;;;5096675;28;20788;-76
2022/07/17 05:31:04;;;;;;;6.07;3.70;;;;;;;;;;5097661;28;20502;-76
2022/07/17 05:33:32;;;;;;;7.23;3.40;;;;;;;;;;5099976;28;20771;-77
2022/07/17 05:35:59;;;;;;;4.53;3.03;;;;;;;;;;5107383;28;20980;-78
2022/07/17 05:38:26;;;;;;;6.77;3.27;;;;;;;;;;5114492;28;20474;-76
2022/07/17 05:40:55;;;;;;;4.53;2.87;;;;;;;;;;5113815;28;20812;-78
2022/07/17 05:43:22;;;;;;;10.33;3.10;;;;;;;;;;5114536;28;20438;-77
2022/07/17 05:45:49;;;;;;;5.00;2.80;;;;;;;;;;5096843;28;20440;-80
2022/07/17 05:48:16;;;;;;;6.03;3.10;;;;;;;;;;5099722;28;20463;-80
2022/07/17 05:50:44;;;;;;;5.80;3.23;;;;;;;;;;5095948;28;20463;-76
2022/07/17 05:53:11;;;;;;;5.47;3.23;;;;;;;;;;5097560;28;20413;-77
2022/07/17 05:55:38;;;;;;;3.77;2.50;;;;;;;;;;5099624;28;20433;-78
2022/07/17 05:58:07;;;;;;;5.33;3.00;;;;;;;;;;5106643;28;20412;-76
2022/07/17 06:00:34;;;;;;;7.80;4.00;;;;;;;;;;5114052;28;20510;-78
2022/07/17 06:03:02;;;;;;;4.77;3.13;;;;;;;;;;5095489;28;20456;-81
2022/07/17 06:05:29;;;;;;;5.33;3.40;;;;;;;;;;5113889;28;20467;-81
2022/07/17 06:07:57;;;;;;;4.30;2.87;;;;;;;;;;5114824;28;20442;-78
2022/07/17 06:10:24;;;;;;;3.87;3.00;;;;;;;;;;5081033;28;20525;-78
2022/07/17 06:12:52;;;;;;;5.13;3.10;;;;;;;;;;5095752;28;20468;-76
2022/07/17 06:15:21;;;;;;;3.67;2.60;;;;;;;;;;5096779;28;20860;-80
2022/07/17 06:17:48;;;;;;;5.70;3.13;;;;;;;;;;5099474;28;20398;-78
2022/07/17 06:20:16;;;;;;;6.37;3.00;;;;;;;;;;5105129;28;20425;-78
2022/07/17 06:22:43;;;;;;;3.57;3.27;;;;;;;;;;5113747;28;20453;-79
2022/07/17 06:25:11;;;;;;;4.40;3.17;;;;;;;;;;5113126;28;20446;-76
2022/07/17 06:27:40;;;;;;;4.80;3.37;;;;;;;;;;5114083;28;20474;-76
2022/07/17 06:30:08;;;;;;;5.30;2.97;;;;;;;;;;5114131;28;20868;-75
2022/07/17 06:32:36;;;;;;;5.40;3.10;;;;;;;;;;5100188;28;20466;-75
2022/07/17 06:35:03;;;;;;;4.87;3.70;;;;;;;;;;5095569;28;20463;-75
2022/07/17 06:37:31;;;;;;;5.27;3.53;;;;;;;;;;5096020;28;20446;-75
2022/07/17 06:39:58;;;;;;;4.03;3.17;;;;;;;;;;5098883;28;20431;-76
2022/07/17 06:42:25;;;;;;;3.23;2.87;;;;;;;;;;5103304;28;20431;-76
2022/07/17 06:44:52;;;;;;;3.97;3.20;;;;;;;;;;5113123;28;21062;-76
2022/07/17 06:47:20;;;;;;;4.20;3.27;;;;;;;;;;5112533;28;20452;-75
2022/07/17 06:49:48;;;;;;;3.80;3.40;;;;;;;;;;5113321;28;20438;-75
2022/07/17 06:52:16;;;;;;;5.57;3.47;;;;;;;;;;5113720;28;20486;-75
2022/07/17 06:54:43;;;;;;;5.93;3.17;;;;;;;;;;5101725;28;20455;-75
2022/07/17 06:57:10;;;;;;;3.50;3.03;;;;;;;;;;5094966;28;20443;-76
2022/07/17 06:59:37;;;;;;;4.23;2.33;;;;;;;;;;5094918;28;20432;-75
2022/07/17 07:02:05;;;;;;;3.77;3.10;;;;;;;;;;5098793;28;20421;-76
2022/07/17 07:04:32;;;;;;;5.70;2.87;;;;;;;;;;5101452;28;20470;-76
2022/07/17 07:07:00;;;;;;;4.10;3.00;;;;;;;;;;5112408;28;20460;-76
2022/07/17 07:09:27;;;;;;;5.90;3.20;;;;;;;;;;5111826;28;20945;-77
2022/07/17 07:11:55;;;;;;;4.33;3.00;;;;;;;;;;5112811;28;20478;-76
2022/07/17 07:14:22;;;;;;;3.63;2.73;;;;;;;;;;5113062;28;20923;-76
2022/07/17 07:16:49;;;;;;;3.33;2.57;;;;;;;;;;5103526;28;20505;-76
2022/07/17 07:19:16;;;;;;;5.80;2.60;;;;;;;;;;5094511;28;20519;-76
2022/07/17 07:21:44;;;;;;;3.47;2.60;;;;;;;;;;5093767;28;20538;-76
2022/07/17 07:24:12;;;;;;;6.97;2.97;;;;;;;;;;5097598;28;20435;-77
2022/07/17 07:26:39;;;;;;;6.67;2.67;;;;;;;;;;5097802;28;20541;-77
2022/07/17 07:29:07;;;;;;;4.20;2.80;;;;;;;;;;5091588;28;20447;-75
2022/07/17 07:31:34;;;;;;;5.60;2.90;;;;;;;;;;5091100;28;20506;-75
2022/07/17 07:34:01;;;;;;;9.03;3.10;;;;;;;;;;5092131;28;20515;-74
2022/07/17 07:36:28;;;;;;;4.63;2.50;;;;;;;;;;5092341;28;20486;-76
2022/07/17 07:38:56;;;;;;;5.97;2.53;;;;;;;;;;5091900;28;20458;-75
2022/07/17 07:41:25;;;;;;;3.80;2.50;;;;;;;;;;5094034;28;20872;-76
2022/07/17 07:43:52;;;;;;;4.90;2.83;;;;;;;;;;5094131;28;20444;-75
2022/07/17 07:46:19;;;;;;;2.07;1.87;;;;;;;;;;5096405;28;20473;-75
2022/07/17 07:48:47;;;;;;;5.60;2.57;;;;;;;;;;5097690;28;20465;-75
2022/07/17 07:51:14;;;;;;;2.83;2.20;;;;;;;;;;5092354;28;20435;-78
2022/07/17 07:53:41;;;;;;;3.90;2.30;;;;;;;;;;5091147;28;20438;-75
2022/07/17 07:56:08;;;;;;;7.13;2.60;;;;;;;;;;5091476;28;20820;-77
2022/07/17 07:58:37;;;;;;;4.57;2.20;;;;;;;;;;5092185;28;20440;-76
2022/07/17 08:01:05;;;;;;;5.23;2.33;;;;;;;;;;5091361;28;20449;-76
2022/07/17 08:03:32;;;;;;;4.20;2.30;;;;;;;;;;5093753;28;20443;-77
2022/07/17 08:05:59;;;;;;;3.73;2.23;;;;;;;;;;5093868;28;20477;-79
2022/07/17 08:08:27;;;;;;;5.23;2.47;;;;;;;;;;5095852;28;20427;-78
2022/07/17 08:10:54;;;;;;;5.57;2.10;;;;;;;;;;5097740;28;20461;-77
2022/07/17 08:13:22;;;;;;;3.53;2.47;;;;;;;;;;5075450;28;20974;-79
2022/07/17 08:15:50;;;;;;;6.37;2.60;;;;;;;;;;5091096;28;20818;-77
2022/07/17 08:18:17;;;;;;;3.23;2.63;;;;;;;;;;5090813;28;20810;-74
2022/07/17 08:20:45;;;;;;;3.97;2.30;;;;;;;;;;5091356;28;20526;-76
2022/07/17 08:23:12;;;;;;;4.97;2.37;;;;;;;;;;5091712;28;20920;-74
2022/07/17 08:25:39;;;;;;;5.20;2.50;;;;;;;;;;5092485;28;20545;-77
2022/07/17 08:28:06;;;;;;;7.23;2.63;;;;;;;;;;5093597;28;20962;-76
2022/07/17 08:30:34;;;;;;;4.47;2.30;;;;;;;;;;5094118;28;20436;-78
2022/07/17 08:33:03;;;;;;;3.70;2.60;;;;;;;;;;5080692;28;20546;-80
2022/07/17 08:35:31;;;;;;;4.13;2.50;;;;;;;;;;5105331;28;20823;-77
2022/07/17 08:38:00;;;;;;;4.70;2.40;;;;;;;;;;5115776;28;20450;-77
2022/07/17 08:40:28;;;;;;;5.60;2.40;;;;;;;;;;5115133;28;20441;-76
2022/07/17 08:42:56;;;;;;;5.97;2.20;;;;;;;;;;5115783;28;21002;-78
2022/07/17 08:45:23;;;;;;;4.40;2.00;;;;;;;;;;5115996;28;20461;-76
2022/07/17 08:47:52;;;;;;;3.50;1.87;;;;;;;;;;5104414;28;20451;-75
2022/07/17 08:50:23;;;;;;;4.27;2.10;;;;;;;;;;5097395;28;20431;-77
2022/07/17 08:52:50;;;;;;;5.23;2.10;;;;;;;;;;5097381;28;20475;-76
2022/07/17 08:55:18;;;;;;;5.93;2.67;;;;;;;;;;5100853;28;20497;-79
2022/07/17 08:57:46;;;;;;;2.63;1.80;;;;;;;;;;5100103;28;20470;-76
2022/07/17 09:00:15;;;;;;;3.87;1.80;;;;;;;;;;5094343;28;20796;-80
2022/07/17 09:02:53;;;;;;;3.80;1.90;;;;;;;;;;5093904;28;20534;-77
2022/07/17 09:05:23;;;;;;;5.80;1.80;;;;;;;;;;5077049;28;20829;-79
2022/07/17 09:07:50;;;;;;;5.13;2.30;;;;;;;;;;5095391;28;20451;-77
2022/07/17 09:10:18;;;;;;;3.10;1.90;;;;;;;;;;5095368;28;20459;-77
2022/07/17 09:12:45;;;;;;;4.10;2.00;;;;;;;;;;5096701;28;20817;-79
2022/07/17 09:15:16;;;;;;;3.43;1.90;;;;;;;;;;5097434;28;20447;-78
2022/07/17 09:17:49;;;;;;;3.70;1.90;;;;;;;;;;5100629;28;20432;-78
2022/07/17 09:20:16;;;;;;;3.47;2.17;;;;;;;;;;5106033;28;20530;-77
2022/07/17 09:22:45;;;;;;;2.30;1.57;;;;;;;;;;5114830;28;20444;-77
2022/07/17 09:25:13;;;;;;;3.70;1.77;;;;;;;;;;5114252;28;20458;-78
2022/07/17 09:27:40;;;;;;;5.00;2.10;;;;;;;;;;5115145;28;20442;-77
2022/07/17 09:30:11;;;;;;;5.73;1.97;;;;;;;;;;5115470;28;20441;-75
2022/07/17 09:32:39;;;;;;;3.30;1.60;;;;;;;;;;5084154;28;20496;-78
2022/07/17 09:35:08;;;;;;;3.00;2.17;;;;;;;;;;5096547;28;21019;-78
2022/07/17 09:37:36;;;;;;;4.50;1.80;;;;;;;;;;5097523;28;20634;-80
2022/07/17 09:40:10;;;;;;;5.23;2.07;;;;;;;;;;5099877;28;20430;-77
2022/07/17 09:42:37;;;;;;;3.93;1.77;;;;;;;;;;5096811;28;20441;-77
2022/07/17 09:45:05;;;;;;;3.80;1.90;;;;;;;;;;5093443;28;20898;-78
2022/07/17 09:47:33;;;;;;;7.77;2.00;;;;;;;;;;5093421;28;20806;-76
2022/07/17 09:50:02;;;;;;;6.10;2.00;;;;;;;;;;5094065;28;20475;-81
2022/07/17 09:52:30;;;;;;;4.90;1.80;;;;;;;;;;5076729;28;20470;-80
2022/07/17 09:54:58;;;;;;;4.60;2.10;;;;;;;;;;5094970;28;20490;-79
2022/07/17 09:57:29;;;;;;;3.33;1.60;;;;;;;;;;5096415;28;20467;-78
2022/07/17 09:59:57;;;;;;;4.90;1.83;;;;;;;;;;5097622;28;20436;-77
2022/07/17 10:02:24;;;;;;;3.43;2.13;;;;;;;;;;5099892;28;20430;-76
2022/07/17 10:04:52;;;;;;;3.73;1.80;;;;;;;;;;5095231;28;20447;-77
2022/07/17 10:07:20;;;;;;;2.57;1.80;;;;;;;;;;5075698;28;21011;-78
2022/07/17 10:09:47;;;;;;;6.07;1.90;;;;;;;;;;5092958;28;20809;-74
2022/07/17 10:12:15;;;;;;;3.80;2.10;;;;;;;;;;5075911;28;20477;-75
2022/07/17 10:14:47;;;;;;;4.10;2.10;;;;;;;;;;5094014;28;20461;-80
2022/07/17 10:17:15;;;;;;;2.73;1.77;;;;;;;;;;5076910;28;20471;-78
2022/07/17 10:19:46;;;;;;;3.47;2.40;;;;;;;;;;5095666;28;20497;-77
2022/07/17 10:22:13;;;;;;;3.70;1.90;;;;;;;;;;5098161;28;20913;-77
2022/07/17 10:24:46;;;;;;;4.03;1.93;;;;;;;;;;5098941;28;20518;-77
2022/07/17 10:27:19;;;;;;;2.67;1.90;;;;;;;;;;5090974;28;20439;-78
2022/07/17 10:29:48;;;;;;;4.83;2.27;;;;;;;;;;5113538;28;20443;-79
2022/07/17 10:32:16;;;;;;;2.23;2.03;;;;;;;;;;5113336;28;20985;-80
2022/07/17 10:34:44;;;;;;;3.07;2.00;;;;;;;;;;5114095;28;20438;-77
2022/07/17 10:37:20;;;;;;;3.70;2.20;;;;;;;;;;5112973;28;20444;-78
2022/07/17 10:39:55;;;;;;;3.20;1.80;;;;;;;;;;5077503;28;20486;-75
2022/07/17 10:42:37;;;;;;;2.13;1.43;;;;;;;;;;5077463;28;20449;-75
2022/07/17 10:45:10;;;;;;;3.73;1.73;;;;;;;;;;5097623;28;20549;-77
2022/07/17 10:47:46;;;;;;;4.40;2.17;;;;;;;;;;5100081;28;20435;-76
2022/07/17 10:50:14;;;;;;;3.67;1.70;;;;;;;;;;5112511;28;20482;-80
2022/07/17 10:52:41;;;;;;;4.07;2.10;;;;;;;;;;5112265;28;20546;-79
2022/07/17 10:55:19;;;;;;;4.47;1.50;;;;;;;;;;5112703;28;20465;-79
2022/07/17 10:57:48;;;;;;;6.60;2.20;;;;;;;;;;5113021;28;20449;-78
2022/07/17 11:00:17;;;;;;;3.73;2.00;;;;;;;;;;5104919;28;20453;-80
2022/07/17 11:02:45;;;;;;;3.67;1.70;;;;;;;;;;5077029;28;20479;-79
2022/07/17 11:05:13;;;;;;;2.60;1.80;;;;;;;;;;5094981;28;20530;-80
2022/07/17 11:07:50;;;;;;;4.23;1.97;;;;;;;;;;5097842;28;20550;-78
2022/07/17 11:10:18;;;;;;;5.37;2.27;;;;;;;;;;5096406;28;20453;-77
2022/07/17 11:12:45;;;;;;;4.00;2.20;;;;;;;;;;5074354;28;20544;-80
2022/07/17 11:15:13;;;;;;;2.80;1.60;;;;;;;;;;5091351;28;20466;-82
2022/07/17 11:17:45;;;;;;;2.90;1.73;;;;;;;;;;5092318;28;20847;-77
2022/07/17 11:20:12;;;;;;;2.43;1.53;;;;;;;;;;5093069;28;20435;-80
2022/07/17 11:22:39;;;;;;;2.90;2.13;;;;;;;;;;5092866;28;20490;-77
2022/07/17 11:25:08;;;;;;;3.37;1.70;;;;;;;;;;5094425;28;20466;-76
2022/07/17 11:27:36;;;;;;;4.83;2.23;;;;;;;;;;5077462;28;20436;-80
2022/07/17 11:30:04;;;;;;;2.33;1.70;;;;;;;;;;5097852;28;20430;-76
2022/07/17 11:32:34;;;;;;;3.90;1.97;;;;;;;;;;5076530;28;20494;-78
2022/07/17 11:35:02;;;;;;;4.67;2.10;;;;;;;;;;5091911;28;20461;-78
2022/07/17 11:37:30;;;;;;;3.90;2.03;;;;;;;;;;5091355;28;20435;-82
2022/07/17 11:39:58;;;;;;;3.80;1.80;;;;;;;;;;5092127;28;20804;-80
2022/07/17 11:42:27;;;;;;;4.50;1.90;;;;;;;;;;5092420;28;20482;-77
2022/07/17 11:44:56;;;;;;;4.97;2.20;;;;;;;;;;5074699;28;20513;-79
2022/07/17 11:47:23;;;;;;;5.17;1.87;;;;;;;;;;5076357;28;20470;-75
2022/07/17 11:49:51;;;;;;;3.07;2.00;;;;;;;;;;5095202;28;21021;-76
2022/07/17 11:52:21;;;;;;;3.53;2.03;;;;;;;;;;5097573;28;20440;-80
2022/07/17 11:54:49;;;;;;;1.70;1.60;;;;;;;;;;5075818;28;20486;-77
2022/07/17 11:57:17;;;;;;;2.13;1.83;;;;;;;;;;5091637;28;20498;-78
2022/07/17 11:59:44;;;;;;;3.63;1.83;;;;;;;;;;5073080;28;20811;-81
2022/07/17 12:02:12;;;;;;;4.67;1.90;;;;;;;;;;5091832;28;20882;-77
2022/07/17 12:04:50;;;;;;;2.43;1.70;;;;;;;;;;5092290;28;20867;-77
2022/07/17 12:07:17;;;;;;;2.17;1.50;;;;;;;;;;5092385;28;20952;-79
2022/07/17 12:09:46;;;;;;;2.00;1.40;;;;;;;;;;5093848;28;20451;-79
2022/07/17 12:12:20;;;;;;;2.30;1.57;;;;;;;;;;5095217;28;20797;-78
2022/07/17 12:14:48;;;;;;;4.43;2.10;;;;;;;;;;5078462;28;20474;-78
2022/07/17 12:17:15;;;;;;;3.93;1.97;;;;;;;;;;5074644;28;20467;-78
2022/07/17 12:19:44;;;;;;;4.07;2.23;;;;;;;;;;5091477;28;20484;-77
2022/07/17 12:22:11;;;;;;;5.63;2.10;;;;;;;;;;5090606;28;20542;-78
2022/07/17 12:24:39;;;;;;;6.80;1.97;;;;;;;;;;5090980;28;20443;-76
2022/07/17 12:27:09;;;;;;;3.20;1.97;;;;;;;;;;5091574;28;20887;-76
2022/07/17 12:29:36;;;;;;;3.90;1.90;;;;;;;;;;5094278;28;20465;-78
2022/07/17 12:32:05;;;;;;;3.33;1.90;;;;;;;;;;5096837;28;20444;-77
2022/07/17 12:34:32;;;;;;;6.40;1.93;;;;;;;;;;5086337;28;20474;-79
2022/07/17 12:36:59;;;;;;;3.57;1.90;;;;;;;;;;5111276;28;20558;-75
2022/07/17 12:39:27;;;;;;;3.90;1.60;;;;;;;;;;5110907;28;20435;-80
2022/07/17 12:41:54;;;;;;;3.00;1.90;;;;;;;;;;5111923;28;20450;-79
2022/07/17 12:44:22;;;;;;;2.90;2.00;;;;;;;;;;5112003;28;20919;-78
2022/07/17 12:46:50;;;;;;;3.03;1.77;;;;;;;;;;5096255;28;20574;-77
2022/07/17 12:49:17;;;;;;;3.07;2.07;;;;;;;;;;5093258;28;20450;-76
2022/07/17 12:51:44;;;;;;;2.97;1.80;;;;;;;;;;5094760;28;20808;-79
2022/07/17 12:54:12;;;;;;;4.10;1.90;;;;;;;;;;5096812;28;21054;-78
2022/07/17 12:56:39;;;;;;;3.43;2.00;;;;;;;;;;5104900;28;20861;-79
2022/07/17 12:59:07;;;;;;;2.70;1.67;;;;;;;;;;5111378;28;20445;-77
2022/07/17 13:01:36;;;;;;;5.03;2.17;;;;;;;;;;5110641;28;20442;-80
2022/07/17 13:04:05;;;;;;;2.00;1.73;;;;;;;;;;5111451;28;20449;-77
2022/07/17 13:06:33;;;;;;;3.57;2.00;;;;;;;;;;5111781;28;20519;-78
2022/07/17 13:09:00;;;;;;;2.87;2.03;;;;;;;;;;5094942;28;20850;-77
2022/07/17 13:11:28;;;;;;;4.03;1.90;;;;;;;;;;5093213;28;20866;-75
2022/07/17 13:13:55;;;;;;;4.67;2.00;;;;;;;;;;5094888;28;20471;-78
2022/07/17 13:16:23;;;;;;;5.80;1.97;;;;;;;;;;5077383;28;20967;-78
2022/07/17 13:18:52;;;;;;;4.23;1.80;;;;;;;;;;5092222;28;20427;-78
2022/07/17 13:21:19;;;;;;;4.83;2.10;;;;;;;;;;5094687;28;20442;-76
2022/07/17 13:23:46;;;;;;;3.07;2.13;;;;;;;;;;5094029;28;20545;-75
2022/07/17 13:26:13;;;;;;;2.00;1.80;;;;;;;;;;5095084;28;20459;-79
2022/07/17 13:28:41;;;;;;;3.97;2.20;;;;;;;;;;5094850;28;20439;-82
2022/07/17 13:31:08;;;;;;;3.67;2.00;;;;;;;;;;5095587;28;20497;-78
2022/07/17 13:33:36;;;;;;;2.40;1.90;;;;;;;;;;5096643;28;20843;-79
2022/07/17 13:36:04;;;;;;;2.90;1.73;;;;;;;;;;5098469;28;20454;-79
2022/07/17 13:38:31;;;;;;;3.57;2.00;;;;;;;;;;5100220;28;20434;-77
2022/07/17 13:40:59;;;;;;;3.63;1.90;;;;;;;;;;5109517;28;20965;-75
2022/07/17 13:43:26;;;;;;;4.07;1.90;;;;;;;;;;5114288;28;20438;-80
2022/07/17 13:45:53;;;;;;;3.53;1.87;;;;;;;;;;5113812;28;20550;-79
2022/07/17 13:48:21;;;;;;;2.80;1.80;;;;;;;;;;5114863;28;20761;-76
2022/07/17 13:50:48;;;;;;;4.43;2.23;;;;;;;;;;5114759;28;20478;-77
2022/07/17 13:53:16;;;;;;;2.57;1.70;;;;;;;;;;5097008;28;20483;-77
2022/07/17 13:55:44;;;;;;;2.93;2.20;;;;;;;;;;5096085;28;20466;-79
2022/07/17 13:58:11;;;;;;;4.23;2.20;;;;;;;;;;5098317;28;20457;-78
2022/07/17 14:00:38;;;;;;;2.90;2.00;;;;;;;;;;5099894;28;20442;-79
2022/07/17 14:03:05;;;;;;;4.13;1.97;;;;;;;;;;5095100;28;20443;-80
2022/07/17 14:05:32;;;;;;;3.73;2.03;;;;;;;;;;5093622;28;20965;-79
2022/07/17 14:08:00;;;;;;;2.27;1.87;;;;;;;;;;5093177;28;20435;-79
2022/07/17 14:10:28;;;;;;;5.43;2.70;;;;;;;;;;5093986;28;20442;-79
2022/07/17 14:12:56;;;;;;;3.33;2.10;;;;;;;;;;5093600;28;20539;-80
2022/07/17 14:15:23;;;;;;;2.37;1.60;;;;;;;;;;5094606;28;20487;-79
2022/07/17 14:17:50;;;;;;;6.60;2.17;;;;;;;;;;5095755;28;20432;-76
2022/07/17 14:20:17;;;;;;;2.60;1.30;;;;;;;;;;5097992;28;20440;-79
2022/07/17 14:22:45;;;;;;;1.70;1.50;;;;;;;;;;5099193;28;20423;-76
2022/07/17 14:25:12;;;;;;;2.37;1.83;;;;;;;;;;5091210;28;20826;-76
2022/07/17 14:27:41;;;;;;;2.27;1.77;;;;;;;;;;5113645;28;20477;-80
2022/07/17 14:30:09;;;;;;;3.40;1.90;;;;;;;;;;5112910;28;20438;-75
2022/07/17 14:32:36;;;;;;;3.87;1.90;;;;;;;;;;5096123;28;20768;-78
2022/07/17 14:35:04;;;;;;;4.10;2.20;;;;;;;;;;5113578;28;20497;-75
2022/07/17 14:37:31;;;;;;;5.27;2.53;;;;;;;;;;5076982;28;20555;-75
2022/07/17 14:39:58;;;;;;;6.30;2.20;;;;;;;;;;5095605;28;20444;-80
2022/07/17 14:42:26;;;;;;;3.77;1.80;;;;;;;;;;5097722;28;20426;-80
2022/07/17 14:44:54;;;;;;;3.63;2.10;;;;;;;;;;5098878;28;20427;-79
2022/07/17 14:47:21;;;;;;;4.70;2.30;;;;;;;;;;5109837;28;20635;-78
2022/07/17 14:49:48;;;;;;;4.33;2.17;;;;;;;;;;5113041;28;20813;-78